sensor_id;sensor_type;location;lat;lon;timestamp;P1;durP1;ratioP1;P2;durP2;ratioP2
56997;SDS011;42890;44.244;22.530;2023-10-19T00:01:55;15.63;;;11.70;;
56997;SDS011;42890;44.244;22.530;2023-10-19T00:04:21;13.80;;;11.70;;
56997;SDS011;42890;44.244;22.530;2023-10-19T00:06:47;16.30;;;12.70;;
56997;SDS011;42890;44.244;22.530;2023-10-19T00:09:14;15.88;;;12.27;;
56997;SDS011;42890;44.244;22.530;2023-10-19T00:11:40;14.30;;;12.25;;
56997;SDS011;42890;44.244;22.530;2023-10-19T00:14:07;24.52;;;14.10;;
56997;SDS011;42890;44.244;22.530;2023-10-19T00:16:45;24.83;;;13.38;;
56997;SDS011;42890;44.244;22.530;2023-10-19T00:19:31;17.00;;;12.63;;
56997;SDS011;42890;44.244;22.530;2023-10-19T00:22:04;20.13;;;13.35;;
56997;SDS011;42890;44.244;22.530;2023-10-19T00:24:34;13.32;;;11.90;;
56997;SDS011;42890;44.244;22.530;2023-10-19T00:27:00;13.07;;;11.77;;
56997;SDS011;42890;44.244;22.530;2023-10-19T00:29:32;18.40;;;12.82;;
56997;SDS011;42890;44.244;22.530;2023-10-19T00:32:05;13.30;;;11.95;;
56997;SDS011;42890;44.244;22.530;2023-10-19T00:34:38;14.13;;;12.60;;
56997;SDS011;42890;44.244;22.530;2023-10-19T00:37:04;15.45;;;12.43;;
56997;SDS011;42890;44.244;22.530;2023-10-19T00:39:35;17.92;;;13.60;;
56997;SDS011;42890;44.244;22.530;2023-10-19T00:42:19;20.98;;;16.38;;
56997;SDS011;42890;44.244;22.530;2023-10-19T00:44:56;56.45;;;46.55;;
56997;SDS011;42890;44.244;22.530;2023-10-19T00:47:29;28.10;;;25.10;;
56997;SDS011;42890;44.244;22.530;2023-10-19T00:50:04;42.38;;;27.17;;
56997;SDS011;42890;44.244;22.530;2023-10-19T00:52:31;26.17;;;23.13;;
56997;SDS011;42890;44.244;22.530;2023-10-19T00:54:57;30.42;;;24.75;;
56997;SDS011;42890;44.244;22.530;2023-10-19T00:57:24;25.90;;;23.10;;
56997;SDS011;42890;44.244;22.530;2023-10-19T01:00:01;24.10;;;20.80;;
56997;SDS011;42890;44.244;22.530;2023-10-19T01:02:37;26.88;;;23.95;;
56997;SDS011;42890;44.244;22.530;2023-10-19T01:05:11;37.05;;;33.05;;
56997;SDS011;42890;44.244;22.530;2023-10-19T01:07:40;38.65;;;34.45;;
56997;SDS011;42890;44.244;22.530;2023-10-19T01:10:07;42.33;;;35.90;;
56997;SDS011;42890;44.244;22.530;2023-10-19T01:12:33;40.08;;;34.85;;
56997;SDS011;42890;44.244;22.530;2023-10-19T01:17:53;39.88;;;34.97;;
56997;SDS011;42890;44.244;22.530;2023-10-19T01:20:24;54.60;;;47.40;;
56997;SDS011;42890;44.244;22.530;2023-10-19T01:22:57;47.05;;;39.42;;
56997;SDS011;42890;44.244;22.530;2023-10-19T01:25:45;51.53;;;43.22;;
56997;SDS011;42890;44.244;22.530;2023-10-19T01:28:30;27.30;;;24.30;;
56997;SDS011;42890;44.244;22.530;2023-10-19T01:31:10;31.92;;;27.52;;
56997;SDS011;42890;44.244;22.530;2023-10-19T01:33:47;31.50;;;28.13;;
56997;SDS011;42890;44.244;22.530;2023-10-19T01:36:14;25.00;;;19.20;;
56997;SDS011;42890;44.244;22.530;2023-10-19T01:38:56;19.25;;;16.40;;
56997;SDS011;42890;44.244;22.530;2023-10-19T01:41:26;27.17;;;17.95;;
56997;SDS011;42890;44.244;22.530;2023-10-19T01:43:53;22.58;;;20.00;;
56997;SDS011;42890;44.244;22.530;2023-10-19T01:46:20;47.00;;;36.35;;
56997;SDS011;42890;44.244;22.530;2023-10-19T01:48:50;30.55;;;25.23;;
56997;SDS011;42890;44.244;22.530;2023-10-19T01:53:49;28.15;;;25.23;;
56997;SDS011;42890;44.244;22.530;2023-10-19T01:56:16;35.92;;;32.05;;
56997;SDS011;42890;44.244;22.530;2023-10-19T01:58:43;36.10;;;31.00;;
56997;SDS011;42890;44.244;22.530;2023-10-19T02:01:12;35.95;;;31.83;;
56997;SDS011;42890;44.244;22.530;2023-10-19T02:03:41;30.10;;;26.48;;
56997;SDS011;42890;44.244;22.530;2023-10-19T02:06:11;26.27;;;23.58;;
56997;SDS011;42890;44.244;22.530;2023-10-19T02:08:55;25.50;;;22.75;;
56997;SDS011;42890;44.244;22.530;2023-10-19T02:11:22;28.23;;;24.15;;
56997;SDS011;42890;44.244;22.530;2023-10-19T02:13:51;30.55;;;25.67;;
56997;SDS011;42890;44.244;22.530;2023-10-19T02:16:19;28.48;;;24.90;;
56997;SDS011;42890;44.244;22.530;2023-10-19T02:18:50;31.33;;;27.77;;
56997;SDS011;42890;44.244;22.530;2023-10-19T02:21:16;40.72;;;28.52;;
56997;SDS011;42890;44.244;22.530;2023-10-19T02:24:03;37.75;;;33.92;;
56997;SDS011;42890;44.244;22.530;2023-10-19T02:26:29;44.03;;;31.33;;
56997;SDS011;42890;44.244;22.530;2023-10-19T02:28:56;29.40;;;26.30;;
56997;SDS011;42890;44.244;22.530;2023-10-19T02:31:23;28.52;;;25.42;;
56997;SDS011;42890;44.244;22.530;2023-10-19T02:33:53;26.27;;;22.88;;
56997;SDS011;42890;44.244;22.530;2023-10-19T02:36:29;26.58;;;23.70;;
56997;SDS011;42890;44.244;22.530;2023-10-19T02:38:56;31.02;;;24.45;;
56997;SDS011;42890;44.244;22.530;2023-10-19T02:41:25;29.35;;;23.60;;
56997;SDS011;42890;44.244;22.530;2023-10-19T02:43:52;26.27;;;23.25;;
56997;SDS011;42890;44.244;22.530;2023-10-19T02:46:49;27.73;;;22.67;;
56997;SDS011;42890;44.244;22.530;2023-10-19T02:49:17;26.00;;;22.70;;
56997;SDS011;42890;44.244;22.530;2023-10-19T02:51:45;29.27;;;24.98;;
56997;SDS011;42890;44.244;22.530;2023-10-19T02:54:15;31.63;;;27.55;;
56997;SDS011;42890;44.244;22.530;2023-10-19T02:56:48;34.08;;;29.80;;
56997;SDS011;42890;44.244;22.530;2023-10-19T02:59:21;35.38;;;28.92;;
56997;SDS011;42890;44.244;22.530;2023-10-19T03:01:48;30.50;;;27.23;;
56997;SDS011;42890;44.244;22.530;2023-10-19T03:04:15;28.67;;;24.92;;
56997;SDS011;42890;44.244;22.530;2023-10-19T03:06:41;26.13;;;22.48;;
56997;SDS011;42890;44.244;22.530;2023-10-19T03:09:09;27.17;;;21.23;;
56997;SDS011;42890;44.244;22.530;2023-10-19T03:11:47;26.40;;;20.25;;
56997;SDS011;42890;44.244;22.530;2023-10-19T03:14:22;24.35;;;19.35;;
56997;SDS011;42890;44.244;22.530;2023-10-19T03:16:50;24.25;;;19.85;;
56997;SDS011;42890;44.244;22.530;2023-10-19T03:19:16;25.05;;;21.77;;
56997;SDS011;42890;44.244;22.530;2023-10-19T03:21:43;21.30;;;19.20;;
56997;SDS011;42890;44.244;22.530;2023-10-19T03:24:09;25.75;;;22.20;;
56997;SDS011;42890;44.244;22.530;2023-10-19T03:26:48;24.67;;;17.80;;
56997;SDS011;42890;44.244;22.530;2023-10-19T03:29:15;19.23;;;17.15;;
56997;SDS011;42890;44.244;22.530;2023-10-19T03:31:50;20.50;;;16.25;;
56997;SDS011;42890;44.244;22.530;2023-10-19T03:34:17;17.23;;;15.48;;
56997;SDS011;42890;44.244;22.530;2023-10-19T03:36:43;17.70;;;15.95;;
56997;SDS011;42890;44.244;22.530;2023-10-19T03:39:10;19.67;;;17.58;;
56997;SDS011;42890;44.244;22.530;2023-10-19T03:41:43;20.38;;;18.02;;
56997;SDS011;42890;44.244;22.530;2023-10-19T03:44:13;27.85;;;19.23;;
56997;SDS011;42890;44.244;22.530;2023-10-19T03:46:50;20.58;;;18.42;;
56997;SDS011;42890;44.244;22.530;2023-10-19T03:49:23;22.35;;;20.17;;
56997;SDS011;42890;44.244;22.530;2023-10-19T03:51:55;22.15;;;18.05;;
56997;SDS011;42890;44.244;22.530;2023-10-19T03:54:27;21.23;;;18.33;;
56997;SDS011;42890;44.244;22.530;2023-10-19T03:56:54;19.90;;;17.75;;
56997;SDS011;42890;44.244;22.530;2023-10-19T03:59:22;22.42;;;20.02;;
56997;SDS011;42890;44.244;22.530;2023-10-19T04:01:55;20.38;;;18.38;;
56997;SDS011;42890;44.244;22.530;2023-10-19T04:04:21;21.00;;;18.88;;
56997;SDS011;42890;44.244;22.530;2023-10-19T04:06:47;21.98;;;19.27;;
56997;SDS011;42890;44.244;22.530;2023-10-19T04:09:14;20.58;;;17.88;;
56997;SDS011;42890;44.244;22.530;2023-10-19T04:11:43;24.58;;;18.13;;
56997;SDS011;42890;44.244;22.530;2023-10-19T04:14:16;20.13;;;17.33;;
56997;SDS011;42890;44.244;22.530;2023-10-19T04:16:43;18.67;;;16.40;;
56997;SDS011;42890;44.244;22.530;2023-10-19T04:19:10;20.33;;;18.23;;
56997;SDS011;42890;44.244;22.530;2023-10-19T04:21:36;23.33;;;20.92;;
56997;SDS011;42890;44.244;22.530;2023-10-19T04:24:09;25.40;;;21.70;;
56997;SDS011;42890;44.244;22.530;2023-10-19T04:26:38;28.85;;;24.45;;
56997;SDS011;42890;44.244;22.530;2023-10-19T04:29:05;30.65;;;24.13;;
56997;SDS011;42890;44.244;22.530;2023-10-19T04:31:41;28.98;;;25.17;;
56997;SDS011;42890;44.244;22.530;2023-10-19T04:34:15;27.83;;;24.95;;
56997;SDS011;42890;44.244;22.530;2023-10-19T04:36:45;24.33;;;21.92;;
56997;SDS011;42890;44.244;22.530;2023-10-19T04:39:12;30.67;;;27.45;;
56997;SDS011;42890;44.244;22.530;2023-10-19T04:41:41;35.17;;;31.38;;
56997;SDS011;42890;44.244;22.530;2023-10-19T04:44:09;36.20;;;32.40;;
56997;SDS011;42890;44.244;22.530;2023-10-19T04:46:35;35.47;;;29.77;;
56997;SDS011;42890;44.244;22.530;2023-10-19T04:49:02;33.45;;;29.98;;
56997;SDS011;42890;44.244;22.530;2023-10-19T04:51:31;33.33;;;29.95;;
56997;SDS011;42890;44.244;22.530;2023-10-19T04:53:58;30.90;;;27.70;;
56997;SDS011;42890;44.244;22.530;2023-10-19T04:56:24;28.60;;;25.70;;
56997;SDS011;42890;44.244;22.530;2023-10-19T04:58:51;29.60;;;26.05;;
56997;SDS011;42890;44.244;22.530;2023-10-19T05:01:17;29.77;;;24.48;;
56997;SDS011;42890;44.244;22.530;2023-10-19T05:03:44;38.88;;;34.20;;
56997;SDS011;42890;44.244;22.530;2023-10-19T05:06:10;42.63;;;35.67;;
56997;SDS011;42890;44.244;22.530;2023-10-19T05:08:36;44.55;;;37.33;;
56997;SDS011;42890;44.244;22.530;2023-10-19T05:11:03;37.63;;;31.92;;
56997;SDS011;42890;44.244;22.530;2023-10-19T05:13:30;32.30;;;25.90;;
56997;SDS011;42890;44.244;22.530;2023-10-19T05:15:58;30.42;;;22.40;;
56997;SDS011;42890;44.244;22.530;2023-10-19T05:18:24;29.33;;;22.52;;
56997;SDS011;42890;44.244;22.530;2023-10-19T05:20:54;27.20;;;24.50;;
56997;SDS011;42890;44.244;22.530;2023-10-19T05:23:22;44.83;;;35.10;;
56997;SDS011;42890;44.244;22.530;2023-10-19T05:25:49;41.10;;;36.55;;
56997;SDS011;42890;44.244;22.530;2023-10-19T05:28:17;53.05;;;37.25;;
56997;SDS011;42890;44.244;22.530;2023-10-19T05:30:44;46.67;;;40.50;;
56997;SDS011;42890;44.244;22.530;2023-10-19T05:33:10;54.75;;;46.35;;
56997;SDS011;42890;44.244;22.530;2023-10-19T05:35:36;50.63;;;44.55;;
56997;SDS011;42890;44.244;22.530;2023-10-19T05:38:06;46.33;;;40.75;;
56997;SDS011;42890;44.244;22.530;2023-10-19T05:40:32;54.88;;;41.13;;
56997;SDS011;42890;44.244;22.530;2023-10-19T05:43:01;66.32;;;41.17;;
56997;SDS011;42890;44.244;22.530;2023-10-19T05:45:28;49.70;;;40.67;;
56997;SDS011;42890;44.244;22.530;2023-10-19T05:47:56;54.40;;;48.33;;
56997;SDS011;42890;44.244;22.530;2023-10-19T05:50:23;55.35;;;49.15;;
56997;SDS011;42890;44.244;22.530;2023-10-19T05:52:50;58.58;;;44.70;;
56997;SDS011;42890;44.244;22.530;2023-10-19T06:31:55;40.75;;;14.82;;
56997;SDS011;42890;44.244;22.530;2023-10-19T06:34:22;30.73;;;15.10;;
56997;SDS011;42890;44.244;22.530;2023-10-19T06:36:48;23.00;;;15.30;;
56997;SDS011;42890;44.244;22.530;2023-10-19T06:39:15;30.95;;;15.27;;
56997;SDS011;42890;44.244;22.530;2023-10-19T06:41:43;22.13;;;16.02;;
56997;SDS011;42890;44.244;22.530;2023-10-19T06:44:09;16.88;;;15.25;;
56997;SDS011;42890;44.244;22.530;2023-10-19T06:46:36;24.52;;;15.07;;
56997;SDS011;42890;44.244;22.530;2023-10-19T06:49:04;19.35;;;15.48;;
56997;SDS011;42890;44.244;22.530;2023-10-19T06:51:30;22.73;;;15.68;;
56997;SDS011;42890;44.244;22.530;2023-10-19T06:53:58;18.15;;;16.25;;
56997;SDS011;42890;44.244;22.530;2023-10-19T06:56:24;27.83;;;16.45;;
56997;SDS011;42890;44.244;22.530;2023-10-19T06:58:51;23.70;;;17.20;;
56997;SDS011;42890;44.244;22.530;2023-10-19T07:01:17;18.25;;;15.50;;
56997;SDS011;42890;44.244;22.530;2023-10-19T07:03:47;17.20;;;15.23;;
56997;SDS011;42890;44.244;22.530;2023-10-19T07:06:13;16.50;;;14.68;;
56997;SDS011;42890;44.244;22.530;2023-10-19T07:08:40;22.23;;;15.95;;
56997;SDS011;42890;44.244;22.530;2023-10-19T07:11:06;19.10;;;15.20;;
56997;SDS011;42890;44.244;22.530;2023-10-19T07:13:33;17.63;;;15.05;;
56997;SDS011;42890;44.244;22.530;2023-10-19T07:15:59;17.38;;;15.60;;
56997;SDS011;42890;44.244;22.530;2023-10-19T07:18:25;17.98;;;16.02;;
56997;SDS011;42890;44.244;22.530;2023-10-19T07:20:52;19.92;;;17.83;;
56997;SDS011;42890;44.244;22.530;2023-10-19T07:23:25;22.85;;;16.45;;
56997;SDS011;42890;44.244;22.530;2023-10-19T07:25:51;19.90;;;16.30;;
56997;SDS011;42890;44.244;22.530;2023-10-19T07:28:20;20.00;;;16.48;;
56997;SDS011;42890;44.244;22.530;2023-10-19T07:30:47;18.98;;;15.75;;
56997;SDS011;42890;44.244;22.530;2023-10-19T07:33:14;24.05;;;16.38;;
56997;SDS011;42890;44.244;22.530;2023-10-19T07:35:44;21.38;;;16.92;;
56997;SDS011;42890;44.244;22.530;2023-10-19T07:38:18;21.02;;;18.00;;
56997;SDS011;42890;44.244;22.530;2023-10-19T07:40:46;25.42;;;19.73;;
56997;SDS011;42890;44.244;22.530;2023-10-19T07:43:12;30.98;;;21.20;;
56997;SDS011;42890;44.244;22.530;2023-10-19T07:45:39;31.45;;;23.35;;
56997;SDS011;42890;44.244;22.530;2023-10-19T07:48:05;21.17;;;19.17;;
56997;SDS011;42890;44.244;22.530;2023-10-19T07:50:32;19.73;;;17.23;;
56997;SDS011;42890;44.244;22.530;2023-10-19T07:52:58;23.30;;;16.90;;
56997;SDS011;42890;44.244;22.530;2023-10-19T07:55:24;27.33;;;17.05;;
56997;SDS011;42890;44.244;22.530;2023-10-19T07:57:51;18.15;;;16.35;;
56997;SDS011;42890;44.244;22.530;2023-10-19T08:00:18;24.90;;;20.23;;
56997;SDS011;42890;44.244;22.530;2023-10-19T08:02:44;22.50;;;18.55;;
56997;SDS011;42890;44.244;22.530;2023-10-19T08:05:11;21.10;;;17.02;;
56997;SDS011;42890;44.244;22.530;2023-10-19T08:07:37;22.42;;;16.10;;
56997;SDS011;42890;44.244;22.530;2023-10-19T08:10:12;18.85;;;16.92;;
56997;SDS011;42890;44.244;22.530;2023-10-19T08:12:38;25.83;;;17.20;;
56997;SDS011;42890;44.244;22.530;2023-10-19T08:15:08;26.67;;;18.13;;
56997;SDS011;42890;44.244;22.530;2023-10-19T08:17:41;24.05;;;18.10;;
56997;SDS011;42890;44.244;22.530;2023-10-19T08:20:08;27.02;;;18.15;;
56997;SDS011;42890;44.244;22.530;2023-10-19T08:22:35;21.30;;;18.17;;
56997;SDS011;42890;44.244;22.530;2023-10-19T08:25:02;18.67;;;16.67;;
56997;SDS011;42890;44.244;22.530;2023-10-19T08:27:29;26.48;;;17.08;;
56997;SDS011;42890;44.244;22.530;2023-10-19T08:29:58;26.10;;;17.67;;
56997;SDS011;42890;44.244;22.530;2023-10-19T08:32:24;31.17;;;17.52;;
56997;SDS011;42890;44.244;22.530;2023-10-19T08:34:51;23.38;;;17.85;;
56997;SDS011;42890;44.244;22.530;2023-10-19T08:37:18;19.90;;;17.80;;
56997;SDS011;42890;44.244;22.530;2023-10-19T08:39:45;20.20;;;17.98;;
56997;SDS011;42890;44.244;22.530;2023-10-19T08:42:11;26.63;;;18.35;;
56997;SDS011;42890;44.244;22.530;2023-10-19T08:44:37;28.55;;;18.17;;
56997;SDS011;42890;44.244;22.530;2023-10-19T08:47:03;19.90;;;17.63;;
56997;SDS011;42890;44.244;22.530;2023-10-19T08:49:30;22.23;;;18.60;;
56997;SDS011;42890;44.244;22.530;2023-10-19T08:51:57;29.48;;;18.95;;
56997;SDS011;42890;44.244;22.530;2023-10-19T08:54:24;25.15;;;18.63;;
56997;SDS011;42890;44.244;22.530;2023-10-19T08:56:51;21.35;;;18.67;;
56997;SDS011;42890;44.244;22.530;2023-10-19T08:59:17;19.88;;;17.77;;
56997;SDS011;42890;44.244;22.530;2023-10-19T09:01:43;23.65;;;17.80;;
56997;SDS011;42890;44.244;22.530;2023-10-19T09:04:12;22.60;;;18.65;;
56997;SDS011;42890;44.244;22.530;2023-10-19T09:06:39;28.52;;;18.38;;
56997;SDS011;42890;44.244;22.530;2023-10-19T09:09:12;20.83;;;17.77;;
56997;SDS011;42890;44.244;22.530;2023-10-19T09:11:51;25.58;;;19.10;;
56997;SDS011;42890;44.244;22.530;2023-10-19T09:14:36;27.67;;;20.75;;
56997;SDS011;42890;44.244;22.530;2023-10-19T09:17:06;26.48;;;19.83;;
56997;SDS011;42890;44.244;22.530;2023-10-19T09:19:39;35.38;;;18.98;;
56997;SDS011;42890;44.244;22.530;2023-10-19T09:22:06;46.53;;;19.95;;
56997;SDS011;42890;44.244;22.530;2023-10-19T09:24:36;33.78;;;22.05;;
56997;SDS011;42890;44.244;22.530;2023-10-19T09:27:03;27.33;;;22.08;;
56997;SDS011;42890;44.244;22.530;2023-10-19T09:29:29;33.67;;;21.73;;
56997;SDS011;42890;44.244;22.530;2023-10-19T09:31:58;36.17;;;24.23;;
56997;SDS011;42890;44.244;22.530;2023-10-19T09:34:29;33.28;;;24.92;;
56997;SDS011;42890;44.244;22.530;2023-10-19T09:37:01;32.47;;;23.73;;
56997;SDS011;42890;44.244;22.530;2023-10-19T09:39:30;26.80;;;23.27;;
56997;SDS011;42890;44.244;22.530;2023-10-19T09:42:08;31.08;;;23.40;;
56997;SDS011;42890;44.244;22.530;2023-10-19T09:44:45;31.13;;;23.20;;
56997;SDS011;42890;44.244;22.530;2023-10-19T09:47:12;25.63;;;21.75;;
56997;SDS011;42890;44.244;22.530;2023-10-19T09:49:40;26.20;;;19.52;;
56997;SDS011;42890;44.244;22.530;2023-10-19T09:52:06;25.67;;;18.67;;
56997;SDS011;42890;44.244;22.530;2023-10-19T09:57:34;23.92;;;17.73;;
56997;SDS011;42890;44.244;22.530;2023-10-19T10:00:03;26.30;;;17.42;;
56997;SDS011;42890;44.244;22.530;2023-10-19T10:02:39;25.75;;;17.70;;
56997;SDS011;42890;44.244;22.530;2023-10-19T10:08:53;23.58;;;15.95;;
56997;SDS011;42890;44.244;22.530;2023-10-19T10:10:49;18.92;;;15.20;;
56997;SDS011;42890;44.244;22.530;2023-10-19T10:15:57;23.98;;;16.55;;
56997;SDS011;42890;44.244;22.530;2023-10-19T10:18:26;23.30;;;16.80;;
56997;SDS011;42890;44.244;22.530;2023-10-19T10:21:11;26.65;;;16.75;;
56997;SDS011;42890;44.244;22.530;2023-10-19T10:26:15;17.80;;;15.85;;
56997;SDS011;42890;44.244;22.530;2023-10-19T10:28:45;20.88;;;16.17;;
56997;SDS011;42890;44.244;22.530;2023-10-19T10:31:20;20.95;;;16.45;;
56997;SDS011;42890;44.244;22.530;2023-10-19T10:33:50;17.83;;;15.50;;
56997;SDS011;42890;44.244;22.530;2023-10-19T10:36:19;17.63;;;15.15;;
56997;SDS011;42890;44.244;22.530;2023-10-19T10:38:46;19.65;;;14.95;;
56997;SDS011;42890;44.244;22.530;2023-10-19T10:41:19;16.95;;;14.80;;
56997;SDS011;42890;44.244;22.530;2023-10-19T10:43:52;20.38;;;13.98;;
56997;SDS011;42890;44.244;22.530;2023-10-19T10:46:21;24.50;;;15.07;;
56997;SDS011;42890;44.244;22.530;2023-10-19T10:48:48;21.98;;;14.43;;
56997;SDS011;42890;44.244;22.530;2023-10-19T10:51:15;17.65;;;15.10;;
56997;SDS011;42890;44.244;22.530;2023-10-19T10:53:41;23.70;;;14.52;;
56997;SDS011;42890;44.244;22.530;2023-10-19T10:56:07;19.52;;;14.95;;
56997;SDS011;42890;44.244;22.530;2023-10-19T10:58:33;16.33;;;14.02;;
56997;SDS011;42890;44.244;22.530;2023-10-19T11:01:00;18.63;;;13.63;;
56997;SDS011;42890;44.244;22.530;2023-10-19T11:03:27;17.27;;;13.73;;
56997;SDS011;42890;44.244;22.530;2023-10-19T11:05:55;23.60;;;13.73;;
56997;SDS011;42890;44.244;22.530;2023-10-19T11:08:24;18.02;;;14.60;;
56997;SDS011;42890;44.244;22.530;2023-10-19T11:10:50;23.63;;;14.30;;
56997;SDS011;42890;44.244;22.530;2023-10-19T11:13:22;15.77;;;13.48;;
56997;SDS011;42890;44.244;22.530;2023-10-19T11:15:49;16.67;;;13.20;;
56997;SDS011;42890;44.244;22.530;2023-10-19T11:21:01;20.15;;;12.55;;
56997;SDS011;42890;44.244;22.530;2023-10-19T11:26:01;20.08;;;13.60;;
56997;SDS011;42890;44.244;22.530;2023-10-19T11:28:27;22.75;;;13.25;;
56997;SDS011;42890;44.244;22.530;2023-10-19T11:30:55;20.67;;;12.57;;
56997;SDS011;42890;44.244;22.530;2023-10-19T11:33:21;17.35;;;12.57;;
56997;SDS011;42890;44.244;22.530;2023-10-19T11:35:49;19.15;;;12.13;;
56997;SDS011;42890;44.244;22.530;2023-10-19T11:38:16;13.65;;;12.13;;
56997;SDS011;42890;44.244;22.530;2023-10-19T11:40:43;21.40;;;11.13;;
56997;SDS011;42890;44.244;22.530;2023-10-19T11:43:09;16.23;;;12.02;;
56997;SDS011;42890;44.244;22.530;2023-10-19T11:45:37;17.92;;;11.20;;
56997;SDS011;42890;44.244;22.530;2023-10-19T11:48:03;18.10;;;10.90;;
56997;SDS011;42890;44.244;22.530;2023-10-19T11:50:29;16.45;;;10.57;;
56997;SDS011;42890;44.244;22.530;2023-10-19T11:52:56;16.38;;;10.05;;
56997;SDS011;42890;44.244;22.530;2023-10-19T11:55:22;16.42;;;10.13;;
56997;SDS011;42890;44.244;22.530;2023-10-19T11:57:49;10.90;;;9.75;;
56997;SDS011;42890;44.244;22.530;2023-10-19T12:00:15;19.40;;;10.02;;
56997;SDS011;42890;44.244;22.530;2023-10-19T12:02:58;15.18;;;9.25;;
56997;SDS011;42890;44.244;22.530;2023-10-19T12:05:25;14.73;;;9.20;;
56997;SDS011;42890;44.244;22.530;2023-10-19T12:07:52;23.38;;;9.25;;
56997;SDS011;42890;44.244;22.530;2023-10-19T12:10:18;16.65;;;8.52;;
56997;SDS011;42890;44.244;22.530;2023-10-19T12:12:50;9.63;;;8.43;;
56997;SDS011;42890;44.244;22.530;2023-10-19T12:15:18;11.88;;;8.13;;
56997;SDS011;42890;44.244;22.530;2023-10-19T12:17:47;13.48;;;8.45;;
56997;SDS011;42890;44.244;22.530;2023-10-19T12:20:15;19.48;;;8.48;;
56997;SDS011;42890;44.244;22.530;2023-10-19T12:22:46;16.48;;;7.72;;
56997;SDS011;42890;44.244;22.530;2023-10-19T12:25:13;14.32;;;8.88;;
56997;SDS011;42890;44.244;22.530;2023-10-19T12:27:40;10.38;;;7.97;;
56997;SDS011;42890;44.244;22.530;2023-10-19T12:30:06;15.40;;;13.82;;
56997;SDS011;42890;44.244;22.530;2023-10-19T12:32:44;12.10;;;9.27;;
56997;SDS011;42890;44.244;22.530;2023-10-19T12:35:14;14.18;;;8.73;;
56997;SDS011;42890;44.244;22.530;2023-10-19T12:37:40;14.02;;;8.13;;
56997;SDS011;42890;44.244;22.530;2023-10-19T12:40:16;19.70;;;8.68;;
56997;SDS011;42890;44.244;22.530;2023-10-19T12:42:53;11.63;;;9.95;;
56997;SDS011;42890;44.244;22.530;2023-10-19T12:45:23;13.55;;;9.57;;
56997;SDS011;42890;44.244;22.530;2023-10-19T12:47:50;14.85;;;10.05;;
56997;SDS011;42890;44.244;22.530;2023-10-19T12:50:19;14.43;;;11.50;;
56997;SDS011;42890;44.244;22.530;2023-10-19T12:52:49;20.05;;;11.38;;
56997;SDS011;42890;44.244;22.530;2023-10-19T12:55:18;18.25;;;14.38;;
56997;SDS011;42890;44.244;22.530;2023-10-19T12:57:44;25.40;;;13.18;;
56997;SDS011;42890;44.244;22.530;2023-10-19T13:00:11;14.27;;;10.10;;
56997;SDS011;42890;44.244;22.530;2023-10-19T13:02:51;13.68;;;10.77;;
56997;SDS011;42890;44.244;22.530;2023-10-19T13:05:31;15.75;;;10.82;;
56997;SDS011;42890;44.244;22.530;2023-10-19T13:07:57;13.52;;;10.85;;
56997;SDS011;42890;44.244;22.530;2023-10-19T13:10:27;16.83;;;10.88;;
56997;SDS011;42890;44.244;22.530;2023-10-19T13:12:59;25.23;;;11.68;;
56997;SDS011;42890;44.244;22.530;2023-10-19T13:15:28;16.70;;;10.75;;
56997;SDS011;42890;44.244;22.530;2023-10-19T13:17:56;15.20;;;10.40;;
56997;SDS011;42890;44.244;22.530;2023-10-19T13:20:24;14.07;;;10.98;;
56997;SDS011;42890;44.244;22.530;2023-10-19T13:22:51;15.65;;;10.88;;
56997;SDS011;42890;44.244;22.530;2023-10-19T13:25:17;19.02;;;10.95;;
56997;SDS011;42890;44.244;22.530;2023-10-19T13:27:44;16.58;;;11.13;;
56997;SDS011;42890;44.244;22.530;2023-10-19T13:30:11;18.85;;;13.18;;
56997;SDS011;42890;44.244;22.530;2023-10-19T13:32:38;14.20;;;12.80;;
56997;SDS011;42890;44.244;22.530;2023-10-19T13:35:04;25.58;;;13.48;;
56997;SDS011;42890;44.244;22.530;2023-10-19T13:37:32;16.25;;;12.73;;
56997;SDS011;42890;44.244;22.530;2023-10-19T13:39:58;20.50;;;13.38;;
56997;SDS011;42890;44.244;22.530;2023-10-19T13:42:24;17.02;;;13.57;;
56997;SDS011;42890;44.244;22.530;2023-10-19T13:44:50;21.05;;;15.80;;
56997;SDS011;42890;44.244;22.530;2023-10-19T13:47:17;25.13;;;18.10;;
56997;SDS011;42890;44.244;22.530;2023-10-19T13:49:43;21.60;;;16.90;;
56997;SDS011;42890;44.244;22.530;2023-10-19T13:52:09;20.77;;;16.15;;
56997;SDS011;42890;44.244;22.530;2023-10-19T13:54:35;21.40;;;17.80;;
56997;SDS011;42890;44.244;22.530;2023-10-19T13:57:02;30.60;;;27.45;;
56997;SDS011;42890;44.244;22.530;2023-10-19T13:59:29;34.80;;;26.60;;
56997;SDS011;42890;44.244;22.530;2023-10-19T14:01:55;32.67;;;25.83;;
56997;SDS011;42890;44.244;22.530;2023-10-19T14:04:23;19.95;;;17.58;;
56997;SDS011;42890;44.244;22.530;2023-10-19T14:06:49;30.23;;;21.75;;
56997;SDS011;42890;44.244;22.530;2023-10-19T14:09:16;31.02;;;18.52;;
56997;SDS011;42890;44.244;22.530;2023-10-19T14:11:43;22.55;;;18.85;;
56997;SDS011;42890;44.244;22.530;2023-10-19T14:14:12;24.35;;;18.30;;
56997;SDS011;42890;44.244;22.530;2023-10-19T14:16:38;22.08;;;16.58;;
56997;SDS011;42890;44.244;22.530;2023-10-19T14:19:04;23.23;;;15.98;;
56997;SDS011;42890;44.244;22.530;2023-10-19T14:21:30;21.27;;;15.98;;
56997;SDS011;42890;44.244;22.530;2023-10-19T14:24:02;17.57;;;15.07;;
56997;SDS011;42890;44.244;22.530;2023-10-19T14:26:28;18.92;;;16.52;;
56997;SDS011;42890;44.244;22.530;2023-10-19T14:28:55;24.02;;;17.55;;
56997;SDS011;42890;44.244;22.530;2023-10-19T14:31:22;22.30;;;13.73;;
56997;SDS011;42890;44.244;22.530;2023-10-19T14:33:48;16.65;;;13.15;;
56997;SDS011;42890;44.244;22.530;2023-10-19T14:36:14;23.63;;;14.30;;
56997;SDS011;42890;44.244;22.530;2023-10-19T14:38:40;24.05;;;15.45;;
56997;SDS011;42890;44.244;22.530;2023-10-19T14:41:08;29.17;;;21.42;;
56997;SDS011;42890;44.244;22.530;2023-10-19T14:43:34;27.52;;;19.02;;
56997;SDS011;42890;44.244;22.530;2023-10-19T14:46:00;31.60;;;26.02;;
56997;SDS011;42890;44.244;22.530;2023-10-19T14:48:27;28.20;;;24.65;;
56997;SDS011;42890;44.244;22.530;2023-10-19T14:50:56;45.22;;;31.23;;
56997;SDS011;42890;44.244;22.530;2023-10-19T14:53:23;56.40;;;50.30;;
56997;SDS011;42890;44.244;22.530;2023-10-19T14:55:49;53.17;;;41.60;;
56997;SDS011;42890;44.244;22.530;2023-10-19T14:58:17;76.47;;;48.95;;
56997;SDS011;42890;44.244;22.530;2023-10-19T15:00:43;64.72;;;44.10;;
56997;SDS011;42890;44.244;22.530;2023-10-19T15:03:19;78.15;;;55.00;;
56997;SDS011;42890;44.244;22.530;2023-10-19T15:05:49;54.55;;;41.60;;
56997;SDS011;42890;44.244;22.530;2023-10-19T15:08:16;78.53;;;62.67;;
56997;SDS011;42890;44.244;22.530;2023-10-19T15:10:44;45.63;;;33.03;;
56997;SDS011;42890;44.244;22.530;2023-10-19T15:13:10;48.35;;;37.22;;
56997;SDS011;42890;44.244;22.530;2023-10-19T15:15:36;31.02;;;22.80;;
56997;SDS011;42890;44.244;22.530;2023-10-19T15:18:03;23.42;;;14.95;;